sensor_id;sensor_type;location;lat;lon;timestamp;temperature;humidity
2300;DHT22;1158;48.750;9.078;2023-07-20T00:01:33;16.30;96.20
2300;DHT22;1158;48.750;9.078;2023-07-20T00:04:00;16.20;95.90
2300;DHT22;1158;48.750;9.078;2023-07-20T00:06:26;16.20;95.90
2300;DHT22;1158;48.750;9.078;2023-07-20T00:08:53;16.20;95.60
2300;DHT22;1158;48.750;9.078;2023-07-20T00:11:20;16.30;95.60
2300;DHT22;1158;48.750;9.078;2023-07-20T00:13:48;16.30;96.40
2300;DHT22;1158;48.750;9.078;2023-07-20T00:16:15;16.10;97.00
2300;DHT22;1158;48.750;9.078;2023-07-20T00:18:42;16.00;97.70
2300;DHT22;1158;48.750;9.078;2023-07-20T00:21:09;15.90;98.10
2300;DHT22;1158;48.750;9.078;2023-07-20T00:23:35;15.70;98.70
2300;DHT22;1158;48.750;9.078;2023-07-20T00:26:02;15.60;99.50
2300;DHT22;1158;48.750;9.078;2023-07-20T00:28:29;15.50;99.80
2300;DHT22;1158;48.750;9.078;2023-07-20T00:30:59;15.40;99.10
2300;DHT22;1158;48.750;9.078;2023-07-20T00:33:25;15.30;99.10
2300;DHT22;1158;48.750;9.078;2023-07-20T00:35:52;15.30;98.90
2300;DHT22;1158;48.750;9.078;2023-07-20T00:38:19;15.20;98.80
2300;DHT22;1158;48.750;9.078;2023-07-20T00:40:46;15.20;98.80
2300;DHT22;1158;48.750;9.078;2023-07-20T00:43:13;15.20;98.70
2300;DHT22;1158;48.750;9.078;2023-07-20T00:45:40;15.30;98.60
2300;DHT22;1158;48.750;9.078;2023-07-20T00:48:09;15.30;97.90
2300;DHT22;1158;48.750;9.078;2023-07-20T00:50:36;15.30;98.00
2300;DHT22;1158;48.750;9.078;2023-07-20T00:53:04;15.40;97.90
2300;DHT22;1158;48.750;9.078;2023-07-20T00:55:31;15.40;97.60
2300;DHT22;1158;48.750;9.078;2023-07-20T00:57:58;15.50;97.40
2300;DHT22;1158;48.750;9.078;2023-07-20T01:00:25;15.40;97.40
2300;DHT22;1158;48.750;9.078;2023-07-20T01:02:51;15.50;97.20
2300;DHT22;1158;48.750;9.078;2023-07-20T01:05:20;15.50;97.30
2300;DHT22;1158;48.750;9.078;2023-07-20T01:07:55;15.50;97.20
2300;DHT22;1158;48.750;9.078;2023-07-20T01:10:29;15.50;97.10
2300;DHT22;1158;48.750;9.078;2023-07-20T01:12:57;15.40;97.20
2300;DHT22;1158;48.750;9.078;2023-07-20T01:15:26;15.40;97.60
2300;DHT22;1158;48.750;9.078;2023-07-20T01:17:53;15.30;97.90
2300;DHT22;1158;48.750;9.078;2023-07-20T01:20:22;15.20;98.30
2300;DHT22;1158;48.750;9.078;2023-07-20T01:23:32;15.20;98.30
2300;DHT22;1158;48.750;9.078;2023-07-20T01:26:29;15.10;98.00
2300;DHT22;1158;48.750;9.078;2023-07-20T01:29:17;15.20;98.30
2300;DHT22;1158;48.750;9.078;2023-07-20T01:31:52;15.10;98.00
2300;DHT22;1158;48.750;9.078;2023-07-20T01:34:19;15.10;98.10
2300;DHT22;1158;48.750;9.078;2023-07-20T01:36:50;15.00;98.50
2300;DHT22;1158;48.750;9.078;2023-07-20T01:39:17;14.90;98.60
2300;DHT22;1158;48.750;9.078;2023-07-20T01:41:45;14.80;98.70
2300;DHT22;1158;48.750;9.078;2023-07-20T01:44:12;14.60;98.90
2300;DHT22;1158;48.750;9.078;2023-07-20T01:46:39;14.50;99.30
2300;DHT22;1158;48.750;9.078;2023-07-20T01:49:07;14.40;99.90
2300;DHT22;1158;48.750;9.078;2023-07-20T01:51:34;14.30;99.90
2300;DHT22;1158;48.750;9.078;2023-07-20T01:54:00;14.10;99.90
2300;DHT22;1158;48.750;9.078;2023-07-20T01:56:27;14.00;99.90
2300;DHT22;1158;48.750;9.078;2023-07-20T01:58:54;14.00;99.90
2300;DHT22;1158;48.750;9.078;2023-07-20T02:01:21;13.90;99.90
2300;DHT22;1158;48.750;9.078;2023-07-20T02:03:47;13.80;99.90
2300;DHT22;1158;48.750;9.078;2023-07-20T02:06:15;13.70;99.90
2300;DHT22;1158;48.750;9.078;2023-07-20T02:08:42;13.70;99.90
2300;DHT22;1158;48.750;9.078;2023-07-20T02:11:09;13.60;99.90
2300;DHT22;1158;48.750;9.078;2023-07-20T02:13:36;13.50;99.90
2300;DHT22;1158;48.750;9.078;2023-07-20T02:16:02;13.40;99.90
2300;DHT22;1158;48.750;9.078;2023-07-20T02:18:29;13.30;99.90
2300;DHT22;1158;48.750;9.078;2023-07-20T02:20:56;13.20;99.90
2300;DHT22;1158;48.750;9.078;2023-07-20T02:23:24;13.10;99.90
2300;DHT22;1158;48.750;9.078;2023-07-20T02:25:51;12.90;99.90
2300;DHT22;1158;48.750;9.078;2023-07-20T02:28:17;12.90;99.90
2300;DHT22;1158;48.750;9.078;2023-07-20T02:30:44;12.80;99.90
2300;DHT22;1158;48.750;9.078;2023-07-20T02:33:11;12.80;99.90
2300;DHT22;1158;48.750;9.078;2023-07-20T02:35:38;12.90;99.90
2300;DHT22;1158;48.750;9.078;2023-07-20T02:38:04;12.80;99.90
2300;DHT22;1158;48.750;9.078;2023-07-20T02:40:33;12.70;99.90
2300;DHT22;1158;48.750;9.078;2023-07-20T02:43:00;12.70;99.90
2300;DHT22;1158;48.750;9.078;2023-07-20T02:45:27;12.60;99.90
2300;DHT22;1158;48.750;9.078;2023-07-20T02:47:53;12.60;99.90
2300;DHT22;1158;48.750;9.078;2023-07-20T02:50:20;12.50;99.90
2300;DHT22;1158;48.750;9.078;2023-07-20T02:52:47;12.50;99.90
2300;DHT22;1158;48.750;9.078;2023-07-20T02:55:14;12.40;99.90
2300;DHT22;1158;48.750;9.078;2023-07-20T02:57:42;12.30;99.90
2300;DHT22;1158;48.750;9.078;2023-07-20T03:00:10;12.30;99.90
2300;DHT22;1158;48.750;9.078;2023-07-20T03:02:37;12.20;99.90
2300;DHT22;1158;48.750;9.078;2023-07-20T03:05:04;12.20;99.90
2300;DHT22;1158;48.750;9.078;2023-07-20T03:07:32;12.20;99.90
2300;DHT22;1158;48.750;9.078;2023-07-20T03:09:59;12.20;99.90
2300;DHT22;1158;48.750;9.078;2023-07-20T03:12:26;12.20;99.90
2300;DHT22;1158;48.750;9.078;2023-07-20T03:14:54;12.20;99.90
2300;DHT22;1158;48.750;9.078;2023-07-20T03:17:22;12.20;99.90
2300;DHT22;1158;48.750;9.078;2023-07-20T03:19:49;12.20;99.90
2300;DHT22;1158;48.750;9.078;2023-07-20T03:22:16;12.20;99.90
2300;DHT22;1158;48.750;9.078;2023-07-20T03:24:42;12.20;99.90
2300;DHT22;1158;48.750;9.078;2023-07-20T03:27:09;12.10;99.90
2300;DHT22;1158;48.750;9.078;2023-07-20T03:29:36;12.20;99.90
2300;DHT22;1158;48.750;9.078;2023-07-20T03:32:05;12.20;99.90
2300;DHT22;1158;48.750;9.078;2023-07-20T03:34:32;12.20;99.90
2300;DHT22;1158;48.750;9.078;2023-07-20T03:36:59;12.20;99.90
2300;DHT22;1158;48.750;9.078;2023-07-20T03:39:26;12.10;99.90
2300;DHT22;1158;48.750;9.078;2023-07-20T03:41:52;12.10;99.90
2300;DHT22;1158;48.750;9.078;2023-07-20T03:44:19;12.00;99.90
2300;DHT22;1158;48.750;9.078;2023-07-20T03:46:46;11.90;99.90
2300;DHT22;1158;48.750;9.078;2023-07-20T03:49:14;11.90;99.90
2300;DHT22;1158;48.750;9.078;2023-07-20T03:51:40;11.90;99.90
2300;DHT22;1158;48.750;9.078;2023-07-20T03:54:07;11.90;99.90
2300;DHT22;1158;48.750;9.078;2023-07-20T03:56:34;11.90;99.90
2300;DHT22;1158;48.750;9.078;2023-07-20T03:59:01;12.00;99.90
2300;DHT22;1158;48.750;9.078;2023-07-20T04:01:28;12.00;99.90
2300;DHT22;1158;48.750;9.078;2023-07-20T04:03:55;12.00;99.90
2300;DHT22;1158;48.750;9.078;2023-07-20T04:06:24;12.00;99.90
2300;DHT22;1158;48.750;9.078;2023-07-20T04:08:50;12.00;99.90
2300;DHT22;1158;48.750;9.078;2023-07-20T04:11:17;12.10;99.90
2300;DHT22;1158;48.750;9.078;2023-07-20T04:13:44;12.20;99.90
2300;DHT22;1158;48.750;9.078;2023-07-20T04:16:10;12.30;99.90
2300;DHT22;1158;48.750;9.078;2023-07-20T04:18:37;12.40;99.90
2300;DHT22;1158;48.750;9.078;2023-07-20T04:21:04;12.60;99.90
2300;DHT22;1158;48.750;9.078;2023-07-20T04:23:32;12.70;99.90
2300;DHT22;1158;48.750;9.078;2023-07-20T04:25:58;12.80;99.90
2300;DHT22;1158;48.750;9.078;2023-07-20T04:28:25;13.00;99.90
2300;DHT22;1158;48.750;9.078;2023-07-20T04:30:52;13.30;99.90
2300;DHT22;1158;48.750;9.078;2023-07-20T04:33:19;14.00;99.90
2300;DHT22;1158;48.750;9.078;2023-07-20T04:35:48;14.50;99.90
2300;DHT22;1158;48.750;9.078;2023-07-20T04:38:15;14.50;99.90
2300;DHT22;1158;48.750;9.078;2023-07-20T04:40:44;14.40;99.90
2300;DHT22;1158;48.750;9.078;2023-07-20T04:43:11;14.40;99.90
2300;DHT22;1158;48.750;9.078;2023-07-20T04:45:38;14.40;99.90
2300;DHT22;1158;48.750;9.078;2023-07-20T04:48:09;14.60;99.90
2300;DHT22;1158;48.750;9.078;2023-07-20T04:50:36;14.60;99.90
2300;DHT22;1158;48.750;9.078;2023-07-20T04:53:03;14.80;99.90
2300;DHT22;1158;48.750;9.078;2023-07-20T04:55:30;14.90;99.90
2300;DHT22;1158;48.750;9.078;2023-07-20T04:58:00;15.20;99.90
2300;DHT22;1158;48.750;9.078;2023-07-20T05:00:27;15.40;99.90
2300;DHT22;1158;48.750;9.078;2023-07-20T05:02:53;15.40;99.90
2300;DHT22;1158;48.750;9.078;2023-07-20T05:05:20;15.60;99.90
2300;DHT22;1158;48.750;9.078;2023-07-20T05:07:47;15.60;99.90
2300;DHT22;1158;48.750;9.078;2023-07-20T05:10:14;15.80;99.90
2300;DHT22;1158;48.750;9.078;2023-07-20T05:12:40;16.00;99.90
2300;DHT22;1158;48.750;9.078;2023-07-20T05:15:09;16.00;99.90
2300;DHT22;1158;48.750;9.078;2023-07-20T05:17:36;16.20;99.90
2300;DHT22;1158;48.750;9.078;2023-07-20T05:20:03;16.30;99.90
2300;DHT22;1158;48.750;9.078;2023-07-20T05:22:30;16.40;99.90
2300;DHT22;1158;48.750;9.078;2023-07-20T05:24:57;16.60;99.90
2300;DHT22;1158;48.750;9.078;2023-07-20T05:27:24;16.70;99.90
2300;DHT22;1158;48.750;9.078;2023-07-20T05:29:50;16.80;99.90
2300;DHT22;1158;48.750;9.078;2023-07-20T05:32:19;16.90;99.90
2300;DHT22;1158;48.750;9.078;2023-07-20T05:34:46;17.10;99.90
2300;DHT22;1158;48.750;9.078;2023-07-20T05:37:12;17.20;99.90
2300;DHT22;1158;48.750;9.078;2023-07-20T05:39:39;17.30;99.90
2300;DHT22;1158;48.750;9.078;2023-07-20T05:42:06;17.40;99.90
2300;DHT22;1158;48.750;9.078;2023-07-20T05:44:33;17.40;99.90
2300;DHT22;1158;48.750;9.078;2023-07-20T05:47:00;17.40;99.90
2300;DHT22;1158;48.750;9.078;2023-07-20T05:49:29;17.60;99.90
2300;DHT22;1158;48.750;9.078;2023-07-20T05:51:56;17.80;99.90
2300;DHT22;1158;48.750;9.078;2023-07-20T05:54:24;18.00;99.90
2300;DHT22;1158;48.750;9.078;2023-07-20T05:56:51;18.20;99.90
2300;DHT22;1158;48.750;9.078;2023-07-20T05:59:17;18.30;99.90
2300;DHT22;1158;48.750;9.078;2023-07-20T06:01:45;18.30;99.90
2300;DHT22;1158;48.750;9.078;2023-07-20T06:04:12;18.40;99.90
2300;DHT22;1158;48.750;9.078;2023-07-20T06:06:40;18.50;99.90
2300;DHT22;1158;48.750;9.078;2023-07-20T06:09:07;18.70;99.90
2300;DHT22;1158;48.750;9.078;2023-07-20T06:11:37;18.70;99.90
2300;DHT22;1158;48.750;9.078;2023-07-20T06:14:04;18.80;99.90
2300;DHT22;1158;48.750;9.078;2023-07-20T06:16:30;18.80;99.90
2300;DHT22;1158;48.750;9.078;2023-07-20T06:18:59;19.00;99.90
2300;DHT22;1158;48.750;9.078;2023-07-20T06:21:26;19.20;99.90
2300;DHT22;1158;48.750;9.078;2023-07-20T06:23:54;19.40;99.90
2300;DHT22;1158;48.750;9.078;2023-07-20T06:26:21;19.30;99.90
2300;DHT22;1158;48.750;9.078;2023-07-20T06:28:47;19.60;99.90
2300;DHT22;1158;48.750;9.078;2023-07-20T06:31:14;19.50;99.90
2300;DHT22;1158;48.750;9.078;2023-07-20T06:33:41;19.40;99.90
2300;DHT22;1158;48.750;9.078;2023-07-20T06:36:07;19.40;99.90
2300;DHT22;1158;48.750;9.078;2023-07-20T06:38:34;19.40;99.90
2300;DHT22;1158;48.750;9.078;2023-07-20T06:41:02;19.60;99.90
2300;DHT22;1158;48.750;9.078;2023-07-20T06:43:29;19.60;99.90
2300;DHT22;1158;48.750;9.078;2023-07-20T06:45:56;19.70;99.90
2300;DHT22;1158;48.750;9.078;2023-07-20T06:48:22;20.20;99.90
2300;DHT22;1158;48.750;9.078;2023-07-20T06:50:49;20.50;99.80
2300;DHT22;1158;48.750;9.078;2023-07-20T06:53:16;20.30;99.30
2300;DHT22;1158;48.750;9.078;2023-07-20T06:55:43;20.40;99.50
2300;DHT22;1158;48.750;9.078;2023-07-20T06:58:11;20.90;98.80
2300;DHT22;1158;48.750;9.078;2023-07-20T07:00:38;21.20;98.20
2300;DHT22;1158;48.750;9.078;2023-07-20T07:03:05;21.80;98.00
2300;DHT22;1158;48.750;9.078;2023-07-20T07:05:35;22.60;96.40
2300;DHT22;1158;48.750;9.078;2023-07-20T07:08:03;22.40;95.60
2300;DHT22;1158;48.750;9.078;2023-07-20T07:10:30;22.30;95.40
2300;DHT22;1158;48.750;9.078;2023-07-20T07:12:56;22.80;96.10
2300;DHT22;1158;48.750;9.078;2023-07-20T07:15:24;23.70;93.80
2300;DHT22;1158;48.750;9.078;2023-07-20T07:17:52;24.60;92.60
2300;DHT22;1158;48.750;9.078;2023-07-20T07:20:18;25.70;91.00
2300;DHT22;1158;48.750;9.078;2023-07-20T07:22:45;25.10;90.80
2300;DHT22;1158;48.750;9.078;2023-07-20T07:25:12;25.80;89.60
2300;DHT22;1158;48.750;9.078;2023-07-20T07:27:39;26.40;87.60
2300;DHT22;1158;48.750;9.078;2023-07-20T07:30:07;26.40;87.80
2300;DHT22;1158;48.750;9.078;2023-07-20T07:32:35;26.80;85.30
2300;DHT22;1158;48.750;9.078;2023-07-20T07:35:02;26.80;85.00
2300;DHT22;1158;48.750;9.078;2023-07-20T07:37:29;26.30;85.20
2300;DHT22;1158;48.750;9.078;2023-07-20T07:39:55;26.70;83.60
2300;DHT22;1158;48.750;9.078;2023-07-20T07:42:22;26.00;83.90
2300;DHT22;1158;48.750;9.078;2023-07-20T07:44:49;25.80;85.60
2300;DHT22;1158;48.750;9.078;2023-07-20T07:47:16;26.30;84.40
2300;DHT22;1158;48.750;9.078;2023-07-20T07:49:44;26.90;83.20
2300;DHT22;1158;48.750;9.078;2023-07-20T07:52:11;26.90;83.30
2300;DHT22;1158;48.750;9.078;2023-07-20T07:54:37;26.90;80.90
2300;DHT22;1158;48.750;9.078;2023-07-20T07:57:04;25.40;85.50
2300;DHT22;1158;48.750;9.078;2023-07-20T07:59:31;25.60;84.60
2300;DHT22;1158;48.750;9.078;2023-07-20T08:02:02;25.70;85.50
2300;DHT22;1158;48.750;9.078;2023-07-20T08:04:29;26.30;83.80
2300;DHT22;1158;48.750;9.078;2023-07-20T08:06:57;27.40;81.40
2300;DHT22;1158;48.750;9.078;2023-07-20T08:09:24;27.30;79.10
2300;DHT22;1158;48.750;9.078;2023-07-20T08:11:51;26.10;80.60
2300;DHT22;1158;48.750;9.078;2023-07-20T08:14:19;26.20;81.60
2300;DHT22;1158;48.750;9.078;2023-07-20T08:16:46;26.40;80.60
2300;DHT22;1158;48.750;9.078;2023-07-20T08:19:13;27.00;79.50
2300;DHT22;1158;48.750;9.078;2023-07-20T08:21:40;27.40;79.60
2300;DHT22;1158;48.750;9.078;2023-07-20T08:24:08;27.50;77.60
2300;DHT22;1158;48.750;9.078;2023-07-20T08:26:34;28.00;75.70
2300;DHT22;1158;48.750;9.078;2023-07-20T08:29:01;27.90;76.20
2300;DHT22;1158;48.750;9.078;2023-07-20T08:31:28;27.70;75.50
2300;DHT22;1158;48.750;9.078;2023-07-20T08:33:54;26.30;78.10
2300;DHT22;1158;48.750;9.078;2023-07-20T08:36:22;25.30;80.60
2300;DHT22;1158;48.750;9.078;2023-07-20T08:38:49;23.90;83.80
2300;DHT22;1158;48.750;9.078;2023-07-20T08:41:18;23.00;86.00
2300;DHT22;1158;48.750;9.078;2023-07-20T08:43:46;22.60;88.30
2300;DHT22;1158;48.750;9.078;2023-07-20T08:46:14;22.20;88.40
2300;DHT22;1158;48.750;9.078;2023-07-20T08:48:42;22.40;88.90
2300;DHT22;1158;48.750;9.078;2023-07-20T08:51:10;22.90;88.40
2300;DHT22;1158;48.750;9.078;2023-07-20T08:53:38;23.10;87.10
2300;DHT22;1158;48.750;9.078;2023-07-20T08:56:05;24.30;86.10
2300;DHT22;1158;48.750;9.078;2023-07-20T08:58:34;25.90;83.70
2300;DHT22;1158;48.750;9.078;2023-07-20T09:01:02;26.00;80.30
2300;DHT22;1158;48.750;9.078;2023-07-20T09:03:29;25.30;81.30
2300;DHT22;1158;48.750;9.078;2023-07-20T09:05:56;24.60;83.70
2300;DHT22;1158;48.750;9.078;2023-07-20T09:08:23;25.20;81.80
2300;DHT22;1158;48.750;9.078;2023-07-20T09:10:50;25.50;81.30
2300;DHT22;1158;48.750;9.078;2023-07-20T09:13:16;25.60;82.30
2300;DHT22;1158;48.750;9.078;2023-07-20T09:15:47;25.20;80.50
2300;DHT22;1158;48.750;9.078;2023-07-20T09:18:24;24.50;82.10
2300;DHT22;1158;48.750;9.078;2023-07-20T09:20:51;24.30;83.50
2300;DHT22;1158;48.750;9.078;2023-07-20T09:23:17;25.10;81.30
2300;DHT22;1158;48.750;9.078;2023-07-20T09:25:44;25.10;80.20
2300;DHT22;1158;48.750;9.078;2023-07-20T09:28:11;25.40;80.70
2300;DHT22;1158;48.750;9.078;2023-07-20T09:30:38;26.20;78.60
2300;DHT22;1158;48.750;9.078;2023-07-20T09:33:18;26.70;76.50
2300;DHT22;1158;48.750;9.078;2023-07-20T09:35:45;26.70;76.20
2300;DHT22;1158;48.750;9.078;2023-07-20T09:38:14;26.10;79.40
2300;DHT22;1158;48.750;9.078;2023-07-20T09:40:42;26.60;77.70
2300;DHT22;1158;48.750;9.078;2023-07-20T09:43:09;27.20;75.50
2300;DHT22;1158;48.750;9.078;2023-07-20T09:45:40;27.00;74.80
2300;DHT22;1158;48.750;9.078;2023-07-20T09:48:09;26.90;75.90
2300;DHT22;1158;48.750;9.078;2023-07-20T09:50:39;27.30;73.50
2300;DHT22;1158;48.750;9.078;2023-07-20T09:53:11;26.70;75.00
2300;DHT22;1158;48.750;9.078;2023-07-20T09:55:39;25.80;75.10
2300;DHT22;1158;48.750;9.078;2023-07-20T09:58:08;25.20;76.90
2300;DHT22;1158;48.750;9.078;2023-07-20T10:00:37;24.80;79.10
2300;DHT22;1158;48.750;9.078;2023-07-20T10:03:05;24.40;78.40
2300;DHT22;1158;48.750;9.078;2023-07-20T10:05:35;24.40;79.40
2300;DHT22;1158;48.750;9.078;2023-07-20T10:08:03;24.00;80.30
2300;DHT22;1158;48.750;9.078;2023-07-20T10:10:33;23.70;79.70
2300;DHT22;1158;48.750;9.078;2023-07-20T10:13:01;24.20;81.50
2300;DHT22;1158;48.750;9.078;2023-07-20T10:15:30;25.20;77.60
2300;DHT22;1158;48.750;9.078;2023-07-20T10:18:03;26.40;74.00
2300;DHT22;1158;48.750;9.078;2023-07-20T10:20:36;26.70;73.60
2300;DHT22;1158;48.750;9.078;2023-07-20T10:23:04;27.40;73.40
2300;DHT22;1158;48.750;9.078;2023-07-20T10:25:31;27.40;71.40
2300;DHT22;1158;48.750;9.078;2023-07-20T10:28:04;26.40;72.90
2300;DHT22;1158;48.750;9.078;2023-07-20T10:30:32;26.70;72.90
2300;DHT22;1158;48.750;9.078;2023-07-20T10:33:00;26.90;73.20
2300;DHT22;1158;48.750;9.078;2023-07-20T10:35:29;26.60;74.40
2300;DHT22;1158;48.750;9.078;2023-07-20T10:38:01;26.30;73.10
2300;DHT22;1158;48.750;9.078;2023-07-20T10:40:32;25.90;74.50
2300;DHT22;1158;48.750;9.078;2023-07-20T10:43:00;25.20;75.40
2300;DHT22;1158;48.750;9.078;2023-07-20T10:45:34;24.60;75.60
2300;DHT22;1158;48.750;9.078;2023-07-20T10:48:03;24.90;76.00
2300;DHT22;1158;48.750;9.078;2023-07-20T10:50:32;24.90;73.10
2300;DHT22;1158;48.750;9.078;2023-07-20T10:53:12;25.40;74.50
2300;DHT22;1158;48.750;9.078;2023-07-20T10:55:39;26.60;75.10
2300;DHT22;1158;48.750;9.078;2023-07-20T10:58:09;27.40;69.10
2300;DHT22;1158;48.750;9.078;2023-07-20T11:00:36;27.60;71.20
2300;DHT22;1158;48.750;9.078;2023-07-20T11:03:04;26.90;68.80
2300;DHT22;1158;48.750;9.078;2023-07-20T11:05:36;26.70;70.50
2300;DHT22;1158;48.750;9.078;2023-07-20T11:08:11;27.80;68.50
2300;DHT22;1158;48.750;9.078;2023-07-20T11:10:38;28.30;66.20
2300;DHT22;1158;48.750;9.078;2023-07-20T11:13:16;27.70;68.40
2300;DHT22;1158;48.750;9.078;2023-07-20T11:15:47;28.10;69.00
2300;DHT22;1158;48.750;9.078;2023-07-20T11:18:14;27.70;66.90
2300;DHT22;1158;48.750;9.078;2023-07-20T11:20:41;27.80;68.20
2300;DHT22;1158;48.750;9.078;2023-07-20T11:23:09;28.50;67.10
2300;DHT22;1158;48.750;9.078;2023-07-20T11:25:40;28.00;65.60
2300;DHT22;1158;48.750;9.078;2023-07-20T11:28:08;28.60;65.20
2300;DHT22;1158;48.750;9.078;2023-07-20T11:30:36;29.40;62.50
2300;DHT22;1158;48.750;9.078;2023-07-20T11:33:03;29.40;62.10
2300;DHT22;1158;48.750;9.078;2023-07-20T11:35:30;29.60;63.70
2300;DHT22;1158;48.750;9.078;2023-07-20T11:37:57;30.90;61.40
2300;DHT22;1158;48.750;9.078;2023-07-20T11:40:24;30.90;60.30
2300;DHT22;1158;48.750;9.078;2023-07-20T11:42:53;31.30;57.90
2300;DHT22;1158;48.750;9.078;2023-07-20T11:45:19;31.20;60.70
2300;DHT22;1158;48.750;9.078;2023-07-20T11:47:46;29.10;60.00
2300;DHT22;1158;48.750;9.078;2023-07-20T11:50:13;29.30;62.30
2300;DHT22;1158;48.750;9.078;2023-07-20T11:52:40;30.30;59.30
2300;DHT22;1158;48.750;9.078;2023-07-20T11:55:07;30.90;61.20
2300;DHT22;1158;48.750;9.078;2023-07-20T11:57:34;31.50;58.70
2300;DHT22;1158;48.750;9.078;2023-07-20T12:00:04;31.10;57.90
2300;DHT22;1158;48.750;9.078;2023-07-20T12:02:34;29.70;59.10
2300;DHT22;1158;48.750;9.078;2023-07-20T12:05:02;28.80;60.50
2300;DHT22;1158;48.750;9.078;2023-07-20T12:07:29;27.70;62.50
2300;DHT22;1158;48.750;9.078;2023-07-20T12:10:06;26.80;63.20
2300;DHT22;1158;48.750;9.078;2023-07-20T12:12:33;26.70;64.00
2300;DHT22;1158;48.750;9.078;2023-07-20T12:15:19;26.60;64.00
2300;DHT22;1158;48.750;9.078;2023-07-20T12:17:49;26.60;64.30
2300;DHT22;1158;48.750;9.078;2023-07-20T12:20:25;27.80;64.40
2300;DHT22;1158;48.750;9.078;2023-07-20T12:22:52;28.10;61.40
2300;DHT22;1158;48.750;9.078;2023-07-20T12:25:18;27.60;61.60
2300;DHT22;1158;48.750;9.078;2023-07-20T12:27:45;27.50;64.50
2300;DHT22;1158;48.750;9.078;2023-07-20T12:30:12;28.90;65.50
2300;DHT22;1158;48.750;9.078;2023-07-20T12:32:41;30.00;61.00
2300;DHT22;1158;48.750;9.078;2023-07-20T12:35:08;30.70;59.90
2300;DHT22;1158;48.750;9.078;2023-07-20T12:37:36;30.60;59.00
2300;DHT22;1158;48.750;9.078;2023-07-20T12:40:04;30.60;58.30
2300;DHT22;1158;48.750;9.078;2023-07-20T12:42:36;30.70;59.40
2300;DHT22;1158;48.750;9.078;2023-07-20T12:45:04;30.20;58.40
2300;DHT22;1158;48.750;9.078;2023-07-20T12:47:31;31.10;58.20
2300;DHT22;1158;48.750;9.078;2023-07-20T12:49:59;30.90;57.80
2300;DHT22;1158;48.750;9.078;2023-07-20T12:52:26;31.20;56.80
2300;DHT22;1158;48.750;9.078;2023-07-20T12:54:53;32.10;58.60
2300;DHT22;1158;48.750;9.078;2023-07-20T12:57:19;31.90;55.80
2300;DHT22;1158;48.750;9.078;2023-07-20T12:59:46;32.00;57.30
2300;DHT22;1158;48.750;9.078;2023-07-20T13:02:13;32.20;56.30
2300;DHT22;1158;48.750;9.078;2023-07-20T13:04:39;31.20;57.20
2300;DHT22;1158;48.750;9.078;2023-07-20T13:07:10;30.70;58.20
2300;DHT22;1158;48.750;9.078;2023-07-20T13:09:37;30.90;58.50
2300;DHT22;1158;48.750;9.078;2023-07-20T13:12:05;29.90;58.40
2300;DHT22;1158;48.750;9.078;2023-07-20T13:14:31;29.70;61.20
2300;DHT22;1158;48.750;9.078;2023-07-20T13:16:58;31.00;57.80
2300;DHT22;1158;48.750;9.078;2023-07-20T13:19:25;31.10;56.40
2300;DHT22;1158;48.750;9.078;2023-07-20T13:21:52;31.20;55.80
2300;DHT22;1158;48.750;9.078;2023-07-20T13:24:20;31.20;55.90
2300;DHT22;1158;48.750;9.078;2023-07-20T13:26:47;30.90;56.20
2300;DHT22;1158;48.750;9.078;2023-07-20T13:29:14;31.20;56.50
2300;DHT22;1158;48.750;9.078;2023-07-20T13:31:40;31.80;55.20
2300;DHT22;1158;48.750;9.078;2023-07-20T13:34:07;31.40;55.10
2300;DHT22;1158;48.750;9.078;2023-07-20T13:36:34;31.50;55.00
2300;DHT22;1158;48.750;9.078;2023-07-20T13:39:00;31.90;55.10
2300;DHT22;1158;48.750;9.078;2023-07-20T13:41:28;32.10;54.20
2300;DHT22;1158;48.750;9.078;2023-07-20T13:43:57;32.50;52.50
2300;DHT22;1158;48.750;9.078;2023-07-20T13:46:24;33.00;55.30
2300;DHT22;1158;48.750;9.078;2023-07-20T13:48:51;32.60;54.90
2300;DHT22;1158;48.750;9.078;2023-07-20T13:51:17;33.60;52.50
2300;DHT22;1158;48.750;9.078;2023-07-20T13:53:47;33.90;52.40
2300;DHT22;1158;48.750;9.078;2023-07-20T13:56:14;33.40;52.80
2300;DHT22;1158;48.750;9.078;2023-07-20T13:58:42;32.80;53.10
2300;DHT22;1158;48.750;9.078;2023-07-20T14:01:08;33.30;51.60
2300;DHT22;1158;48.750;9.078;2023-07-20T14:03:35;32.10;52.10
2300;DHT22;1158;48.750;9.078;2023-07-20T14:06:03;32.10;52.90
2300;DHT22;1158;48.750;9.078;2023-07-20T14:08:29;31.80;53.40
2300;DHT22;1158;48.750;9.078;2023-07-20T14:10:56;30.60;54.50
2300;DHT22;1158;48.750;9.078;2023-07-20T14:13:23;31.50;55.10
2300;DHT22;1158;48.750;9.078;2023-07-20T14:15:51;33.10;51.40
2300;DHT22;1158;48.750;9.078;2023-07-20T14:18:18;33.90;52.40
2300;DHT22;1158;48.750;9.078;2023-07-20T14:20:45;33.70;52.70
2300;DHT22;1158;48.750;9.078;2023-07-20T14:23:11;32.70;51.20
2300;DHT22;1158;48.750;9.078;2023-07-20T14:25:38;33.10;52.20
2300;DHT22;1158;48.750;9.078;2023-07-20T14:28:05;32.70;51.80
2300;DHT22;1158;48.750;9.078;2023-07-20T14:30:32;32.90;51.40
2300;DHT22;1158;48.750;9.078;2023-07-20T14:33:00;33.10;51.40
2300;DHT22;1158;48.750;9.078;2023-07-20T14:35:27;33.90;50.70
2300;DHT22;1158;48.750;9.078;2023-07-20T14:37:54;33.80;52.10
2300;DHT22;1158;48.750;9.078;2023-07-20T14:40:20;32.30;53.10
2300;DHT22;1158;48.750;9.078;2023-07-20T14:42:47;32.00;53.70
2300;DHT22;1158;48.750;9.078;2023-07-20T14:45:13;32.50;53.20
2300;DHT22;1158;48.750;9.078;2023-07-20T14:47:40;32.40;52.00
2300;DHT22;1158;48.750;9.078;2023-07-20T14:50:10;32.00;53.40
2300;DHT22;1158;48.750;9.078;2023-07-20T14:52:36;32.20;53.20
2300;DHT22;1158;48.750;9.078;2023-07-20T14:55:04;32.60;52.90
2300;DHT22;1158;48.750;9.078;2023-07-20T14:57:31;32.50;53.30
2300;DHT22;1158;48.750;9.078;2023-07-20T14:59:57;32.30;53.70
2300;DHT22;1158;48.750;9.078;2023-07-20T15:02:24;31.50;53.30
2300;DHT22;1158;48.750;9.078;2023-07-20T15:04:51;31.80;53.40
2300;DHT22;1158;48.750;9.078;2023-07-20T15:07:20;31.40;52.40
2300;DHT22;1158;48.750;9.078;2023-07-20T15:09:48;30.90;54.50
2300;DHT22;1158;48.750;9.078;2023-07-20T15:12:14;31.30;55.60
2300;DHT22;1158;48.750;9.078;2023-07-20T15:14:43;31.50;52.40
2300;DHT22;1158;48.750;9.078;2023-07-20T15:17:10;31.60;54.00
2300;DHT22;1158;48.750;9.078;2023-07-20T15:19:36;31.50;52.20
2300;DHT22;1158;48.750;9.078;2023-07-20T15:22:04;32.20;53.00
2300;DHT22;1158;48.750;9.078;2023-07-20T15:24:32;31.80;52.70
2300;DHT22;1158;48.750;9.078;2023-07-20T15:26:59;31.50;53.70
2300;DHT22;1158;48.750;9.078;2023-07-20T15:29:27;31.10;55.20
2300;DHT22;1158;48.750;9.078;2023-07-20T15:31:54;30.70;54.80
2300;DHT22;1158;48.750;9.078;2023-07-20T15:34:21;30.90;56.50
2300;DHT22;1158;48.750;9.078;2023-07-20T15:36:47;31.30;55.00
2300;DHT22;1158;48.750;9.078;2023-07-20T15:39:14;31.60;54.60
2300;DHT22;1158;48.750;9.078;2023-07-20T15:41:42;31.10;53.50
2300;DHT22;1158;48.750;9.078;2023-07-20T15:44:09;30.50;53.40
2300;DHT22;1158;48.750;9.078;2023-07-20T15:46:46;30.10;54.90
2300;DHT22;1158;48.750;9.078;2023-07-20T15:49:12;31.30;54.10
2300;DHT22;1158;48.750;9.078;2023-07-20T15:51:39;31.80;53.60
2300;DHT22;1158;48.750;9.078;2023-07-20T15:54:08;30.70;53.30
2300;DHT22;1158;48.750;9.078;2023-07-20T15:56:36;30.60;55.10
2300;DHT22;1158;48.750;9.078;2023-07-20T15:59:04;30.30;54.80
2300;DHT22;1158;48.750;9.078;2023-07-20T16:01:31;30.30;55.70
2300;DHT22;1158;48.750;9.078;2023-07-20T16:03:58;30.40;56.10
2300;DHT22;1158;48.750;9.078;2023-07-20T16:06:25;30.30;54.80